Time;durP1;ratioP1;P1;durP2;ratioP2;P2;SDS_P1;SDS_P2;PMS_P1;PMS_P2;Temp;Humidity;BMP_temperature;BMP_pressure;BME280_temperature;BME280_humidity;BME280_pressure;Samples;Min_cycle;Max_cycle;Signal;HPM_P1;HPM_P2
2023/07/05 00:00:43;;;;;;;3.93;2.80;;;;;;;12.96;100.00;101175.50;5016288;28;20194;-73
2023/07/05 00:03:08;;;;;;;5.80;2.93;;;;;;;12.97;100.00;101177.25;5026670;28;20213;-73
2023/07/05 00:05:36;;;;;;;3.53;2.80;;;;;;;12.98;100.00;101171.25;5023166;28;20555;-73
2023/07/05 00:08:01;;;;;;;5.50;3.57;;;;;;;13.01;100.00;101167.88;5024147;28;20276;-73
2023/07/05 00:10:27;;;;;;;5.83;2.93;;;;;;;13.04;100.00;101168.78;5024927;28;20610;-72
2023/07/05 00:12:52;;;;;;;6.40;3.23;;;;;;;13.07;100.00;101176.53;5024141;28;20218;-74
2023/07/05 00:15:18;;;;;;;8.53;3.57;;;;;;;13.07;100.00;101179.09;5025541;28;20316;-74
2023/07/05 00:17:43;;;;;;;6.73;3.60;;;;;;;13.11;100.00;101180.88;5025405;28;20238;-73
2023/07/05 00:20:09;;;;;;;4.57;2.93;;;;;;;13.14;100.00;101170.66;5026337;28;20289;-73
2023/07/05 00:22:35;;;;;;;5.77;3.30;;;;;;;13.19;100.00;101169.00;5024004;28;20244;-73
2023/07/05 00:25:02;;;;;;;6.13;3.57;;;;;;;13.22;100.00;101170.75;5021784;28;20716;-73
2023/07/05 00:27:27;;;;;;;6.37;3.13;;;;;;;13.24;100.00;101162.22;5011348;28;20215;-74
2023/07/05 00:29:53;;;;;;;8.03;3.40;;;;;;;13.27;100.00;101164.84;5022387;28;20520;-73
2023/07/05 00:32:19;;;;;;;5.13;3.70;;;;;;;13.29;100.00;101162.25;5021021;28;20194;-73
2023/07/05 00:34:45;;;;;;;5.50;3.90;;;;;;;13.30;100.00;101166.59;5021842;28;20206;-74
2023/07/05 00:37:10;;;;;;;8.97;4.20;;;;;;;13.30;100.00;101161.44;5026017;28;20647;-74
2023/07/05 00:39:36;;;;;;;8.83;4.20;;;;;;;13.28;100.00;101157.97;5026696;28;20197;-74
2023/07/05 00:42:03;;;;;;;6.43;3.70;;;;;;;13.28;100.00;101164.00;5025906;28;20237;-74
2023/07/05 00:44:29;;;;;;;8.10;4.37;;;;;;;13.29;100.00;101158.00;5027536;28;20199;-74
2023/07/05 00:47:01;;;;;;;7.87;4.20;;;;;;;13.32;100.00;101160.63;5026701;28;20203;-74
2023/07/05 00:49:29;;;;;;;5.90;4.37;;;;;;;13.35;100.00;101162.38;5033128;28;20223;-74
2023/07/05 00:52:05;;;;;;;10.93;4.60;;;;;;;13.35;100.00;101155.50;5022864;28;20549;-74
2023/07/05 00:54:38;;;;;;;5.60;4.43;;;;;;;13.36;100.00;101148.66;5031122;28;20279;-74
2023/07/05 00:57:10;;;;;;;6.07;3.80;;;;;;;13.36;100.00;101148.66;5009093;28;20214;-73
2023/07/05 00:59:46;;;;;;;6.67;4.23;;;;;;;13.34;100.00;101140.91;5027040;28;20256;-73
2023/07/05 01:02:14;;;;;;;9.03;4.20;;;;;;;13.38;100.00;101142.69;5024634;28;20693;-74
2023/07/05 01:04:40;;;;;;;9.97;4.40;;;;;;;13.38;100.00;101137.53;5030015;28;20220;-74
2023/07/05 01:07:05;;;;;;;7.77;4.27;;;;;;;13.41;100.00;101118.72;5026496;28;20572;-74
2023/07/05 01:09:31;;;;;;;8.17;4.33;;;;;;;13.43;100.00;101124.72;5015198;28;20207;-74
2023/07/05 01:12:11;;;;;;;7.23;4.30;;;;;;;13.43;100.00;101110.16;5027564;28;20206;-74
2023/07/05 01:15:03;;;;;;;9.23;4.57;;;;;;;13.42;100.00;101116.16;5025121;28;20229;-74
2023/07/05 01:17:37;;;;;;;6.50;4.40;;;;;;;13.44;100.00;101106.72;5019494;28;20238;-74
2023/07/05 01:20:09;;;;;;;9.63;4.30;;;;;;;13.43;100.00;101104.13;5028445;28;20203;-74
2023/07/05 01:22:58;;;;;;;11.33;5.50;;;;;;;13.44;100.00;101104.16;5027015;28;20226;-74
2023/07/05 01:25:35;;;;;;;8.50;4.93;;;;;;;13.46;100.00;101096.47;5021457;28;20264;-74
2023/07/05 01:28:26;;;;;;;8.63;5.20;;;;;;;13.49;100.00;101097.34;5022946;28;20218;-74
2023/07/05 01:31:04;;;;;;;7.83;5.30;;;;;;;13.50;100.00;101098.22;5032438;28;20191;-74
2023/07/05 01:33:43;;;;;;;8.30;5.27;;;;;;;13.51;100.00;101095.69;5025067;28;20546;-72
2023/07/05 01:36:10;;;;;;;12.40;5.53;;;;;;;13.52;100.00;101093.97;5023249;28;20222;-72
2023/07/05 01:38:37;;;;;;;9.77;5.10;;;;;;;13.53;100.00;101096.56;5015578;28;20269;-72
2023/07/05 01:41:05;;;;;;;11.27;5.33;;;;;;;13.54;100.00;101093.13;5023755;28;20818;-72
2023/07/05 01:43:36;;;;;;;9.47;5.40;;;;;;;13.54;100.00;101087.13;5035020;28;20183;-72
2023/07/05 01:46:22;;;;;;;10.57;5.20;;;;;;;13.57;100.00;101089.72;5022655;28;20222;-72
2023/07/05 01:49:04;;;;;;;11.67;5.70;;;;;;;13.58;100.00;101081.19;5030206;28;20218;-72
2023/07/05 01:51:46;;;;;;;9.17;5.30;;;;;;;13.58;100.00;101079.44;5023105;28;20314;-73
2023/07/05 01:54:39;;;;;;;7.30;5.67;;;;;;;13.59;100.00;101060.63;5029159;28;20198;-72
2023/07/05 01:57:24;;;;;;;8.23;5.17;;;;;;;13.60;100.00;101067.47;5020987;28;20210;-72
2023/07/05 02:00:07;;;;;;;8.73;5.50;;;;;;;13.64;100.00;101058.09;5031814;28;20572;-72
2023/07/05 02:02:41;;;;;;;8.67;5.23;;;;;;;13.66;100.00;101044.38;5022298;28;20224;-72
2023/07/05 02:05:09;;;;;;;8.53;5.83;;;;;;;13.68;100.00;101036.69;5026086;28;20201;-72
2023/07/05 02:07:36;;;;;;;14.00;6.43;;;;;;;13.71;100.00;101036.72;5026247;28;20268;-73
2023/07/05 02:10:02;;;;;;;9.57;5.50;;;;;;;13.73;100.00;101025.59;5014416;28;20198;-72
2023/07/05 02:12:29;;;;;;;11.00;5.50;;;;;;;13.73;100.00;101030.75;5033331;28;20191;-72
2023/07/05 02:14:55;;;;;;;9.60;5.63;;;;;;;13.76;100.00;101028.19;5028357;28;20221;-72
2023/07/05 02:17:22;;;;;;;12.70;6.13;;;;;;;13.76;100.00;101020.44;5028165;28;20202;-72
2023/07/05 02:19:48;;;;;;;11.20;6.20;;;;;;;13.74;100.00;101011.88;5024358;28;20199;-73
2023/07/05 02:22:13;;;;;;;7.17;5.70;;;;;;;13.75;100.00;101000.72;5030331;28;20278;-72
2023/07/05 02:24:39;;;;;;;9.93;6.00;;;;;;;13.75;100.00;100997.25;5032598;28;20194;-72
2023/07/05 02:27:05;;;;;;;10.60;5.97;;;;;;;13.79;100.00;100988.72;5025548;28;20889;-72
2023/07/05 02:29:30;;;;;;;11.10;6.17;;;;;;;13.79;100.00;100993.88;5027434;28;20210;-72
2023/07/05 02:31:59;;;;;;;10.03;5.90;;;;;;;13.80;100.00;100993.91;5020513;28;20373;-73
2023/07/05 02:34:26;;;;;;;10.40;6.30;;;;;;;13.81;100.00;100981.91;5021983;28;20190;-73
2023/07/05 02:36:51;;;;;;;10.47;6.07;;;;;;;13.84;100.00;100964.75;5011929;28;20198;-73
2023/07/05 02:39:17;;;;;;;9.93;5.90;;;;;;;13.87;100.00;100944.19;5026397;28;20272;-73
2023/07/05 02:41:43;;;;;;;8.90;5.60;;;;;;;13.89;100.00;100933.88;5030380;28;20285;-73
2023/07/05 02:44:08;;;;;;;9.70;5.70;;;;;;;13.94;100.00;100924.47;5020528;28;20815;-73
2023/07/05 02:46:35;;;;;;;10.37;5.80;;;;;;;13.99;100.00;100922.84;5028142;28;20688;-72
2023/07/05 02:49:02;;;;;;;10.60;5.40;;;;;;;14.02;100.00;100917.69;5023102;28;20220;-72
2023/07/05 02:51:27;;;;;;;10.47;6.27;;;;;;;14.05;100.00;100902.25;5025063;28;20186;-72
2023/07/05 02:53:53;;;;;;;12.47;6.37;;;;;;;14.05;100.00;100891.97;5028124;28;20201;-73
2023/07/05 02:56:18;;;;;;;7.60;6.03;;;;;;;14.09;100.00;100883.41;5021579;28;20222;-73
2023/07/05 02:58:44;;;;;;;8.10;5.80;;;;;;;14.13;100.00;100880.00;5029090;28;20245;-73
2023/07/05 03:01:09;;;;;;;12.00;6.57;;;;;;;14.16;100.00;100874.84;5007203;28;20199;-73
2023/07/05 03:03:35;;;;;;;11.07;6.17;;;;;;;14.25;100.00;100872.34;5021069;28;20237;-73
2023/07/05 03:06:00;;;;;;;11.67;6.23;;;;;;;14.30;100.00;100863.81;5027618;28;20194;-73
2023/07/05 03:08:28;;;;;;;8.43;6.33;;;;;;;14.31;100.00;100842.34;5028633;28;20604;-73
2023/07/05 03:10:58;;;;;;;10.60;6.10;;;;;;;14.33;100.00;100838.06;5023609;28;20201;-73
2023/07/05 03:13:27;;;;;;;11.53;6.23;;;;;;;14.35;100.00;100825.16;5015997;28;20260;-73
2023/07/05 03:15:52;;;;;;;12.27;6.33;;;;;;;14.38;100.00;100812.31;5024520;28;20215;-72
2023/07/05 03:18:18;;;;;;;11.40;6.47;;;;;;;14.46;100.00;100811.47;5019889;28;20233;-73
2023/07/05 03:20:47;;;;;;;10.77;6.30;;;;;;;14.57;100.00;100803.78;5027460;28;20202;-73
2023/07/05 03:23:14;;;;;;;7.00;5.97;;;;;;;14.61;100.00;100797.78;5028295;28;20198;-73
2023/07/05 03:25:40;;;;;;;9.83;5.77;;;;;;;14.67;100.00;100790.91;5022350;28;20191;-73
2023/07/05 03:28:06;;;;;;;10.00;5.73;;;;;;;14.72;100.00;100785.75;5024663;28;20214;-72
2023/07/05 03:30:34;;;;;;;7.60;5.40;;;;;;;14.72;100.00;100773.75;5028487;28;20194;-72
2023/07/05 03:33:00;;;;;;;10.67;6.13;;;;;;;14.81;100.00;100783.19;5022911;28;20191;-72
2023/07/05 03:35:27;;;;;;;9.93;5.90;;;;;;;14.81;100.00;100780.59;5020649;28;20211;-73
2023/07/05 03:37:52;;;;;;;7.70;4.83;;;;;;;14.82;100.00;100787.50;5023188;28;20707;-73
2023/07/05 03:40:18;;;;;;;10.03;5.17;;;;;;;14.83;100.00;100782.34;5024158;28;20226;-73
2023/07/05 03:42:43;;;;;;;8.50;5.23;;;;;;;14.90;100.00;100778.91;5023740;28;20571;-73
2023/07/05 03:45:09;;;;;;;9.53;5.40;;;;;;;14.97;100.00;100764.31;5020491;28;20561;-73
2023/07/05 03:47:34;;;;;;;8.63;5.27;;;;;;;14.97;100.00;100764.31;5021472;28;20582;-73
2023/07/05 03:50:00;;;;;;;7.90;5.17;;;;;;;15.01;100.00;100768.63;5025213;28;20636;-73
2023/07/05 03:52:26;;;;;;;12.20;5.27;;;;;;;15.00;100.00;100766.88;5022819;28;20202;-73
2023/07/05 03:54:52;;;;;;;10.00;5.27;;;;;;;15.03;100.00;100765.19;5025856;28;20589;-73
2023/07/05 03:57:19;;;;;;;10.10;5.13;;;;;;;15.08;100.00;100770.31;5024694;28;20265;-73
2023/07/05 03:59:46;;;;;;;10.20;4.97;;;;;;;15.04;100.00;100773.75;5027746;28;20190;-73
2023/07/05 04:02:11;;;;;;;7.60;5.10;;;;;;;15.02;100.00;100771.19;5021867;28;20281;-73
2023/07/05 04:04:37;;;;;;;10.10;5.70;;;;;;;14.99;100.00;100772.91;5017979;28;20281;-73
2023/07/05 04:07:03;;;;;;;13.33;5.70;;;;;;;14.96;100.00;100771.19;5028099;28;20197;-73
2023/07/05 04:09:28;;;;;;;7.97;5.37;;;;;;;14.90;100.00;100775.47;5024978;28;20320;-73
2023/07/05 04:11:53;;;;;;;8.50;5.67;;;;;;;14.81;100.00;100775.44;5026180;28;20198;-73
2023/07/05 04:14:19;;;;;;;10.07;5.87;;;;;;;14.78;100.00;100776.31;5027881;28;20205;-73
2023/07/05 04:16:44;;;;;;;10.57;6.50;;;;;;;14.78;100.00;100775.47;5026883;28;20248;-73
2023/07/05 04:19:10;;;;;;;10.90;6.77;;;;;;;14.70;100.00;100766.88;5027291;28;20231;-73
2023/07/05 04:21:35;;;;;;;9.90;6.50;;;;;;;14.66;100.00;100755.69;5025377;28;20279;-73
2023/07/05 04:24:01;;;;;;;12.67;7.00;;;;;;;14.61;100.00;100753.97;5021107;28;20211;-73
2023/07/05 04:26:28;;;;;;;12.13;7.30;;;;;;;14.60;100.00;100744.50;5020474;28;20186;-73
2023/07/05 04:28:54;;;;;;;9.73;6.83;;;;;;;14.50;100.00;100733.31;5020448;28;20218;-73
2023/07/05 04:31:25;;;;;;;10.53;7.07;;;;;;;14.44;100.00;100735.91;5024620;28;20209;-73
2023/07/05 04:33:50;;;;;;;9.93;6.40;;;;;;;14.45;100.00;100731.63;5022283;28;20240;-73
2023/07/05 04:36:16;;;;;;;11.00;7.43;;;;;;;14.42;100.00;100719.59;5023671;28;20745;-73
2023/07/05 04:38:41;;;;;;;14.63;7.80;;;;;;;14.44;100.00;100722.13;5029624;28;20586;-73
2023/07/05 04:41:08;;;;;;;12.27;7.80;;;;;;;14.41;100.00;100712.69;5027778;28;20202;-73
2023/07/05 04:43:33;;;;;;;12.47;7.20;;;;;;;14.40;100.00;100713.56;5026715;28;20202;-73
2023/07/05 04:46:00;;;;;;;11.47;6.87;;;;;;;14.42;100.00;100716.13;5018411;28;20191;-73
2023/07/05 04:48:28;;;;;;;12.90;7.27;;;;;;;14.39;100.00;100710.97;5031844;28;20215;-73
2023/07/05 04:50:55;;;;;;;11.57;7.60;;;;;;;14.40;100.00;100704.94;5026008;28;20613;-73
2023/07/05 04:53:22;;;;;;;12.00;8.07;;;;;;;14.38;100.00;100711.84;5025851;28;20205;-73
2023/07/05 04:55:49;;;;;;;11.63;7.93;;;;;;;14.34;100.00;100703.25;5020158;28;20225;-72
2023/07/05 04:58:15;;;;;;;11.17;7.53;;;;;;;14.35;100.00;100698.94;5018382;28;20227;-73
2023/07/05 05:00:45;;;;;;;11.13;8.30;;;;;;;14.40;100.00;100697.22;5026015;28;20198;-73
2023/07/05 05:03:12;;;;;;;9.70;7.60;;;;;;;14.43;100.00;100692.97;5023150;28;20205;-73
2023/07/05 05:05:37;;;;;;;12.90;8.30;;;;;;;14.41;100.00;100686.09;5025527;28;20209;-73
2023/07/05 05:08:03;;;;;;;12.17;7.80;;;;;;;14.44;100.00;100693.78;5027970;28;20699;-73
2023/07/05 05:10:28;;;;;;;12.17;8.57;;;;;;;14.47;100.00;100698.97;5030918;28;20236;-73
2023/07/05 05:12:54;;;;;;;14.17;7.37;;;;;;;14.46;100.00;100697.25;5023375;28;20285;-73
2023/07/05 05:15:19;;;;;;;9.90;7.97;;;;;;;14.45;100.00;100698.97;5031747;28;20263;-73
2023/07/05 05:17:44;;;;;;;14.97;8.87;;;;;;;14.45;100.00;100687.81;5022509;28;20639;-73
2023/07/05 05:20:11;;;;;;;11.63;8.23;;;;;;;14.44;100.00;100701.53;5030162;28;20194;-73
2023/07/05 05:22:36;;;;;;;12.30;7.93;;;;;;;14.40;100.00;100707.53;5027663;28;20205;-73
2023/07/05 05:25:01;;;;;;;11.50;8.50;;;;;;;14.39;100.00;100708.38;5029547;28;20194;-73
2023/07/05 05:27:27;;;;;;;12.60;8.37;;;;;;;14.39;100.00;100709.25;5030758;28;20218;-73
2023/07/05 05:29:52;;;;;;;17.27;9.23;;;;;;;14.33;100.00;100701.53;5027773;28;20195;-73
2023/07/05 05:32:18;;;;;;;12.90;8.93;;;;;;;14.30;100.00;100703.22;5025571;28;20199;-74
2023/07/05 05:34:43;;;;;;;15.30;9.30;;;;;;;14.23;100.00;100702.34;5024533;28;20226;-73
2023/07/05 05:37:08;;;;;;;15.30;9.90;;;;;;;14.24;100.00;100695.50;5033486;28;20386;-73
2023/07/05 05:39:34;;;;;;;15.27;9.53;;;;;;;14.21;100.00;100691.19;5028823;28;20201;-73
2023/07/05 05:41:59;;;;;;;15.07;10.17;;;;;;;14.21;100.00;100680.88;5026540;28;20194;-73
2023/07/05 05:44:25;;;;;;;16.97;9.93;;;;;;;14.19;100.00;100674.84;5025780;28;20297;-73
2023/07/05 05:46:50;;;;;;;13.60;9.63;;;;;;;14.19;100.00;100674.84;5025667;28;20190;-73
2023/07/05 05:49:16;;;;;;;17.80;10.20;;;;;;;14.19;100.00;100669.72;5019767;28;20333;-73
2023/07/05 05:51:41;;;;;;;14.50;10.70;;;;;;;14.17;100.00;100662.81;5028828;28;20278;-73
2023/07/05 05:54:06;;;;;;;14.63;10.50;;;;;;;14.15;100.00;100646.50;5027524;28;20293;-73
2023/07/05 05:56:32;;;;;;;14.83;11.13;;;;;;;14.18;100.00;100644.78;5026736;28;20280;-73
2023/07/05 05:58:57;;;;;;;16.27;11.30;;;;;;;14.16;100.00;100651.66;5026762;28;20291;-73
2023/07/05 06:01:23;;;;;;;17.60;10.67;;;;;;;14.20;100.00;100640.53;5025235;28;20364;-73
2023/07/05 06:03:48;;;;;;;13.83;9.77;;;;;;;14.16;100.00;100631.06;5026930;28;20652;-73
2023/07/05 06:06:13;;;;;;;17.03;11.03;;;;;;;14.19;100.00;100633.66;5030112;28;20688;-73
2023/07/05 06:08:39;;;;;;;14.73;10.17;;;;;;;14.22;100.00;100630.25;5029664;28;20213;-73
2023/07/05 06:11:04;;;;;;;13.93;11.00;;;;;;;14.23;100.00;100619.91;5027751;28;20679;-73
2023/07/05 06:13:31;;;;;;;15.90;10.60;;;;;;;14.25;100.00;100623.38;5026054;28;20276;-73
2023/07/05 06:15:58;;;;;;;14.70;10.57;;;;;;;14.29;100.00;100611.34;5020937;28;20226;-73
2023/07/05 06:18:26;;;;;;;15.87;10.17;;;;;;;14.35;100.00;100604.50;5028798;28;20576;-73
2023/07/05 06:20:51;;;;;;;11.63;10.10;;;;;;;14.37;100.00;100595.03;5024249;28;20186;-73
2023/07/05 06:23:17;;;;;;;12.33;9.03;;;;;;;14.39;100.00;100598.47;5027339;28;20670;-73
2023/07/05 06:25:47;;;;;;;16.77;10.10;;;;;;;14.43;100.00;100591.59;5027226;28;20280;-73
2023/07/05 06:28:12;;;;;;;15.23;10.47;;;;;;;14.43;100.00;100583.88;5022345;28;20222;-73
2023/07/05 06:30:38;;;;;;;17.43;10.83;;;;;;;14.43;100.00;100578.72;5021244;28;20210;-73
2023/07/05 06:33:03;;;;;;;12.37;9.97;;;;;;;14.41;100.00;100586.44;5024553;28;20253;-73
2023/07/05 06:35:30;;;;;;;15.53;10.07;;;;;;;14.40;100.00;100584.72;5026796;28;20382;-73
2023/07/05 06:37:56;;;;;;;14.87;10.87;;;;;;;14.42;100.00;100593.34;5028200;28;20631;-73
2023/07/05 06:40:21;;;;;;;18.43;10.73;;;;;;;14.42;100.00;100592.47;5021133;28;20191;-73
2023/07/05 06:42:47;;;;;;;13.57;10.37;;;;;;;14.42;100.00;100593.34;5026581;28;20285;-73
2023/07/05 06:45:15;;;;;;;18.43;10.80;;;;;;;14.38;100.00;100603.63;5026237;28;20194;-73
2023/07/05 06:47:41;;;;;;;12.87;10.33;;;;;;;14.38;100.00;100611.34;5024288;28;20210;-73
2023/07/05 06:50:08;;;;;;;13.63;11.27;;;;;;;14.36;100.00;100607.94;5024007;28;20194;-73
2023/07/05 06:52:34;;;;;;;19.73;11.10;;;;;;;14.39;100.00;100610.50;5026775;28;20291;-73
2023/07/05 06:54:59;;;;;;;13.43;11.17;;;;;;;14.37;100.00;100615.63;5026712;28;20277;-73
2023/07/05 06:57:25;;;;;;;15.80;10.70;;;;;;;14.41;100.00;100611.38;5020601;28;20203;-73
2023/07/05 06:59:50;;;;;;;15.77;10.83;;;;;;;14.41;100.00;100604.47;5028376;28;20201;-73
2023/07/05 07:02:16;;;;;;;16.90;11.47;;;;;;;14.43;100.00;100596.75;5028991;28;20194;-73
2023/07/05 07:04:41;;;;;;;15.63;11.63;;;;;;;14.41;100.00;100599.31;5027348;28;20845;-73
2023/07/05 07:07:07;;;;;;;17.63;12.30;;;;;;;14.35;100.00;100596.75;5028560;28;20225;-73
2023/07/05 07:09:33;;;;;;;15.13;11.50;;;;;;;14.43;100.00;100574.44;5026207;28;20244;-73
2023/07/05 07:11:58;;;;;;;14.50;11.17;;;;;;;14.45;100.00;100564.13;5026691;28;20567;-73
2023/07/05 07:14:25;;;;;;;15.87;11.50;;;;;;;14.51;100.00;100551.25;5028775;28;20194;-73
2023/07/05 07:16:51;;;;;;;16.53;11.37;;;;;;;14.54;100.00;100518.59;5019514;28;20665;-73
2023/07/05 07:19:17;;;;;;;18.63;11.67;;;;;;;14.60;100.00;100518.56;5026975;28;20242;-73
2023/07/05 07:21:43;;;;;;;15.90;11.50;;;;;;;14.70;100.00;100563.22;5024349;28;20281;-73
2023/07/05 07:24:09;;;;;;;15.93;10.97;;;;;;;14.78;100.00;100569.25;5023199;28;20210;-73
2023/07/05 07:26:34;;;;;;;13.33;10.70;;;;;;;14.87;100.00;100589.84;5022635;28;20191;-73
2023/07/05 07:29:00;;;;;;;15.37;10.43;;;;;;;14.99;100.00;100567.47;5004104;28;20222;-73
2023/07/05 07:31:29;;;;;;;20.30;11.97;;;;;;;15.12;100.00;100560.53;5026738;28;20198;-72
2023/07/05 07:33:55;;;;;;;16.20;10.60;;;;;;;15.30;100.00;100565.63;5019372;28;20709;-73
2023/07/05 07:36:24;;;;;;;17.60;10.93;;;;;;;15.41;100.00;100569.03;5027801;28;20737;-73
2023/07/05 07:38:50;;;;;;;17.30;10.80;;;;;;;15.49;100.00;100557.84;5026251;28;20210;-73
2023/07/05 07:41:24;;;;;;;17.10;11.83;;;;;;;15.56;100.00;100556.91;5025992;28;20202;-73
2023/07/05 07:43:55;;;;;;;17.97;11.70;;;;;;;15.52;100.00;100549.22;5024816;28;20442;-73
2023/07/05 07:46:24;;;;;;;14.73;10.87;;;;;;;15.58;100.00;100559.50;5023916;28;20186;-71
2023/07/05 07:48:52;;;;;;;16.23;11.70;;;;;;;15.54;100.00;100553.50;5027124;28;20229;-72
2023/07/05 07:51:19;;;;;;;16.00;11.73;;;;;;;15.61;100.00;100557.75;5027436;28;20198;-72
2023/07/05 07:53:44;;;;;;;19.10;11.90;;;;;;;15.54;100.00;100560.38;5026872;28;20568;-72
2023/07/05 07:56:14;;;;;;;15.40;11.97;;;;;;;15.50;100.00;100561.25;5026622;28;20218;-72
2023/07/05 07:58:40;;;;;;;15.50;12.47;;;;;;;15.53;100.00;100548.34;5028179;28;20727;-72
2023/07/05 08:01:10;;;;;;;15.83;11.43;;;;;;;15.49;100.00;100563.00;5017099;28;20205;-72
2023/07/05 08:03:36;;;;;;;16.40;11.97;;;;;;;15.58;100.00;100562.09;5025992;28;20290;-72
2023/07/05 08:06:01;;;;;;;17.57;11.33;;;;;;;15.64;100.00;100560.31;5027176;28;20681;-72
2023/07/05 08:08:26;;;;;;;13.00;10.57;;;;;;;15.68;100.00;100564.59;5025231;28;20217;-71
2023/07/05 08:10:52;;;;;;;15.67;10.93;;;;;;;15.66;100.00;100566.31;5026074;28;20240;-72
2023/07/05 08:13:17;;;;;;;14.47;10.73;;;;;;;15.69;100.00;100568.03;5022551;28;20285;-72
2023/07/05 08:15:43;;;;;;;15.50;11.83;;;;;;;15.75;100.00;100561.09;5027805;28;20210;-72
2023/07/05 08:18:08;;;;;;;16.53;11.57;;;;;;;15.80;100.00;100561.94;5016907;28;20603;-73
2023/07/05 08:20:34;;;;;;;12.20;10.73;;;;;;;15.91;100.00;100562.75;5018698;28;20554;-72
2023/07/05 08:22:59;;;;;;;13.83;10.13;;;;;;;16.02;100.00;100557.50;5015167;28;20317;-72
2023/07/05 08:25:24;;;;;;;13.40;11.07;;;;;;;16.14;100.00;100560.84;5024602;28;20187;-71
2023/07/05 08:27:50;;;;;;;12.93;9.47;;;;;;;16.30;100.00;100562.44;5021441;28;20218;-72
2023/07/05 08:30:15;;;;;;;11.33;9.57;;;;;;;16.42;100.00;100569.25;5017140;28;20183;-73
2023/07/05 08:32:41;;;;;;;15.23;10.50;;;;;;;16.74;100.00;100562.06;5031526;28;20199;-72
2023/07/05 08:35:07;;;;;;;12.80;8.90;;;;;;;16.93;100.00;100564.44;5022110;28;20299;-72
2023/07/05 08:37:32;;;;;;;12.00;8.93;;;;;;;17.01;100.00;100557.47;5027283;28;20214;-72
2023/07/05 08:39:58;;;;;;;11.17;7.93;;;;;;;16.97;100.00;100558.38;5033565;28;20212;-72
2023/07/05 08:42:28;;;;;;;10.93;7.63;;;;;;;17.12;100.00;100557.31;5024752;28;20672;-72
2023/07/05 08:45:11;;;;;;;8.80;7.87;;;;;;;17.42;100.00;100568.22;5027807;28;20194;-72
2023/07/05 08:47:51;;;;;;;9.63;6.73;;;;;;;18.27;100.00;100557.44;5023046;28;20226;-71
2023/07/05 08:50:34;;;;;;;6.90;6.20;;;;;;;18.28;100.00;100560.00;5027684;28;20260;-72
2023/07/05 08:53:10;;;;;;;9.57;6.27;;;;;;;18.37;100.00;100572.84;5012207;28;20910;-72
2023/07/05 08:55:55;;;;;;;7.63;5.97;;;;;;;18.62;100.00;100566.38;5033672;28;20253;-72
2023/07/05 08:58:25;;;;;;;8.17;5.77;;;;;;;18.57;100.00;100565.56;5031536;28;20228;-72
2023/07/05 09:01:06;;;;;;;7.10;5.60;;;;;;;18.46;100.00;100583.06;5026439;28;20903;-72
2023/07/05 09:03:32;;;;;;;7.27;5.00;;;;;;;18.48;100.00;100576.13;5028617;28;20194;-72
2023/07/05 09:06:20;;;;;;;9.30;5.03;;;;;;;18.52;100.00;100566.56;5030376;28;20187;-72
2023/07/05 09:08:59;;;;;;;5.87;4.57;;;;;;;18.62;100.00;100566.38;5029125;28;20248;-72
2023/07/05 09:11:50;;;;;;;5.20;4.37;;;;;;;18.75;100.00;100572.19;5027934;28;20190;-72
2023/07/05 09:14:21;;;;;;;6.67;4.53;;;;;;;19.03;100.00;100581.19;5025994;28;20198;-72
2023/07/05 09:17:09;;;;;;;4.93;4.27;;;;;;;18.92;100.00;100570.13;5022849;28;20849;-72
2023/07/05 09:20:16;;;;;;;4.47;3.70;;;;;;;18.90;100.00;100582.28;5025426;28;20194;-72
2023/07/05 09:22:42;;;;;;;4.87;3.37;;;;;;;18.92;100.00;100593.47;5027441;28;20671;-72
2023/07/05 09:25:13;;;;;;;5.07;3.73;;;;;;;19.20;100.00;100592.09;5028536;28;20197;-72
2023/07/05 09:27:43;;;;;;;4.27;3.07;;;;;;;19.16;100.00;100596.47;5032374;28;20214;-71
2023/07/05 09:30:20;;;;;;;5.20;3.97;;;;;;;18.85;100.00;100610.94;5030182;28;20988;-72
2023/07/05 09:32:51;;;;;;;6.67;3.50;;;;;;;18.45;100.00;100601.25;5030589;28;20205;-72
2023/07/05 09:35:23;;;;;;;4.83;3.10;;;;;;;18.25;100.00;100606.72;5028015;28;20215;-72
2023/07/05 09:37:58;;;;;;;4.63;3.30;;;;;;;18.54;100.00;100604.56;5030706;28;20214;-72
2023/07/05 09:40:29;;;;;;;3.83;2.70;;;;;;;18.82;100.00;100577.25;5028888;28;20193;-72
2023/07/05 09:43:01;;;;;;;5.63;2.63;;;;;;;18.82;100.00;100512.38;5026483;28;20692;-72
2023/07/05 09:45:27;;;;;;;3.73;3.00;;;;;;;19.06;100.00;100530.03;5023712;28;20179;-72
2023/07/05 09:48:02;;;;;;;3.00;2.60;;;;;;;19.26;100.00;100550.44;5029191;28;20748;-72
2023/07/05 09:50:28;;;;;;;3.07;2.67;;;;;;;19.29;100.00;100522.66;5019969;28;20191;-72
2023/07/05 09:53:01;;;;;;;2.63;2.40;;;;;;;19.50;100.00;100514.44;5028201;28;20569;-72
2023/07/05 09:55:27;;;;;;;3.77;2.60;;;;;;;19.55;100.00;100485.72;5027762;28;20210;-72
2023/07/05 09:57:53;;;;;;;3.77;2.60;;;;;;;19.47;100.00;100478.13;5026615;28;20683;-72
2023/07/05 10:00:35;;;;;;;5.17;3.00;;;;;;;19.62;100.00;100466.53;5024330;28;20209;-72
2023/07/05 10:03:14;;;;;;;3.27;2.70;;;;;;;19.52;100.00;100439.91;5022763;28;20547;-72
2023/07/05 10:05:51;;;;;;;4.20;2.53;;;;;;;19.42;100.00;100468.72;5029451;28;20186;-72
2023/07/05 10:08:17;;;;;;;4.73;2.70;;;;;;;19.09;100.00;100500.56;5026780;28;20287;-72
2023/07/05 10:10:43;;;;;;;6.80;2.90;;;;;;;19.31;100.00;100488.88;5026270;28;20600;-72
2023/07/05 10:13:15;;;;;;;5.10;2.80;;;;;;;19.87;100.00;100446.84;5030192;28;20205;-72
2023/07/05 10:15:42;;;;;;;5.43;2.70;;;;;;;19.72;100.00;100435.06;5030016;28;20215;-72
2023/07/05 10:18:30;;;;;;;4.53;2.33;;;;;;;19.87;100.00;100428.66;5025317;28;20222;-72
2023/07/05 10:21:00;;;;;;;3.93;2.33;;;;;;;20.10;100.00;100453.22;5028935;28;20229;-72
2023/07/05 10:23:28;;;;;;;4.70;2.77;;;;;;;19.80;100.00;100464.34;5030072;28;20226;-72
2023/07/05 10:26:00;;;;;;;3.27;2.63;;;;;;;19.94;100.00;100467.44;5029771;28;20259;-72
2023/07/05 10:28:29;;;;;;;4.87;2.80;;;;;;;19.94;100.00;100456.22;5024811;28;20218;-73
2023/07/05 10:31:00;;;;;;;4.60;2.60;;;;;;;19.99;100.00;100464.75;5026174;28;20198;-72
2023/07/05 10:33:31;;;;;;;3.47;2.40;;;;;;;20.21;100.00;100466.78;5030131;28;20187;-71
2023/07/05 10:35:57;;;;;;;3.97;2.77;;;;;;;20.21;100.00;100425.19;5029616;28;20308;-72
2023/07/05 10:38:48;;;;;;;4.03;2.83;;;;;;;20.23;100.00;100454.59;5026201;28;20308;-72
2023/07/05 10:41:19;;;;;;;3.87;2.60;;;;;;;19.95;100.00;100447.53;5026805;28;20700;-72
2023/07/05 10:44:05;;;;;;;3.40;2.43;;;;;;;19.53;100.00;100443.38;5022982;28;20199;-72
2023/07/05 10:46:34;;;;;;;4.23;2.83;;;;;;;19.84;100.00;100468.56;5023928;28;20561;-72
2023/07/05 10:49:02;;;;;;;3.77;2.33;;;;;;;19.91;100.00;100415.56;5025409;28;20683;-72
2023/07/05 10:51:33;;;;;;;4.23;2.60;;;;;;;20.07;98.71;100410.78;5028396;28;20324;-72
2023/07/05 10:54:20;;;;;;;4.10;2.20;;;;;;;20.06;98.95;100411.69;5028894;28;20205;-72
2023/07/05 10:56:47;;;;;;;5.90;2.50;;;;;;;19.47;100.00;100404.53;5019567;28;20217;-72
2023/07/05 10:59:37;;;;;;;3.70;2.47;;;;;;;19.70;100.00;100442.06;5023519;28;20238;-72
2023/07/05 11:02:15;;;;;;;3.63;2.27;;;;;;;19.77;100.00;100437.56;5023951;28;20203;-72
2023/07/05 11:04:45;;;;;;;4.47;2.40;;;;;;;20.08;97.16;100407.34;5028645;28;20297;-71
2023/07/05 11:07:12;;;;;;;7.67;2.20;;;;;;;19.86;96.74;100403.56;5025659;28;20203;-72
2023/07/05 11:09:38;;;;;;;3.63;2.13;;;;;;;20.03;98.28;100420.44;5027466;28;20289;-72
2023/07/05 11:12:28;;;;;;;4.80;2.20;;;;;;;20.07;97.27;100427.25;5029419;28;20232;-72
2023/07/05 11:14:56;;;;;;;3.20;1.97;;;;;;;20.12;95.21;100419.34;5026545;28;20211;-72
2023/07/05 11:17:36;;;;;;;4.63;2.17;;;;;;;20.06;91.88;100415.16;5029607;28;20230;-73
2023/07/05 11:20:39;;;;;;;5.93;2.00;;;;;;;19.81;96.98;100439.22;5068912;28;20570;-73